Time;durP1;ratioP1;P1;durP2;ratioP2;P2;SDS_P1;SDS_P2;PMS_P1;PMS_P2;Temp;Humidity;BMP_temperature;BMP_pressure;BME280_temperature;BME280_humidity;BME280_pressure;Samples;Min_cycle;Max_cycle;Signal;HPM_P1;HPM_P2
2023/08/08 00:01:35;;;;;;;178.30;53.70;;;;;;;;;;5054189;28;20206;-49
2023/08/08 00:04:01;;;;;;;179.83;54.23;;;;;;;;;;5054815;28;20405;-49
2023/08/08 00:06:27;;;;;;;180.35;54.28;;;;;;;;;;5056011;28;20480;-49
2023/08/08 00:08:53;;;;;;;180.13;53.43;;;;;;;;;;5054292;28;20258;-50
2023/08/08 00:11:19;;;;;;;178.77;52.50;;;;;;;;;;5045046;28;20458;-50
2023/08/08 00:13:45;;;;;;;177.20;51.50;;;;;;;;;;5054138;28;20452;-51
2023/08/08 00:16:11;;;;;;;178.77;52.10;;;;;;;;;;5053736;28;20414;-50
2023/08/08 00:18:37;;;;;;;179.80;52.67;;;;;;;;;;5051854;28;20182;-51
2023/08/08 00:21:03;;;;;;;179.97;53.50;;;;;;;;;;5054723;28;20646;-52
2023/08/08 00:23:29;;;;;;;178.17;51.80;;;;;;;;;;5074249;28;20405;-49
2023/08/08 00:25:55;;;;;;;179.63;52.37;;;;;;;;;;5057482;28;20500;-50
2023/08/08 00:28:21;;;;;;;178.37;51.77;;;;;;;;;;5066774;28;20416;-50
2023/08/08 00:30:47;;;;;;;178.60;52.10;;;;;;;;;;5065233;28;20441;-49
2023/08/08 00:33:13;;;;;;;180.67;52.43;;;;;;;;;;5058344;28;20419;-50
2023/08/08 00:35:39;;;;;;;179.37;52.33;;;;;;;;;;5073708;28;20408;-52
2023/08/08 00:38:05;;;;;;;180.30;52.60;;;;;;;;;;5051651;28;20453;-52
2023/08/08 00:40:31;;;;;;;179.43;52.17;;;;;;;;;;5053555;28;20477;-53
2023/08/08 00:42:57;;;;;;;178.77;51.50;;;;;;;;;;5046460;28;20199;-49
2023/08/08 00:45:23;;;;;;;180.17;52.67;;;;;;;;;;5053442;28;20410;-50
2023/08/08 00:47:49;;;;;;;179.32;52.13;;;;;;;;;;5055451;28;20441;-53
2023/08/08 00:50:17;;;;;;;179.50;52.60;;;;;;;;;;5047505;28;20210;-50
2023/08/08 00:52:44;;;;;;;180.30;52.70;;;;;;;;;;5050689;28;20545;-49
2023/08/08 00:55:10;;;;;;;181.77;53.10;;;;;;;;;;5049170;28;20172;-49
2023/08/08 00:57:38;;;;;;;179.70;52.37;;;;;;;;;;5053094;28;20167;-49
2023/08/08 01:00:05;;;;;;;181.68;53.13;;;;;;;;;;5053070;28;20409;-49
2023/08/08 01:02:31;;;;;;;182.68;53.75;;;;;;;;;;5048670;28;20588;-50
2023/08/08 01:04:57;;;;;;;182.07;53.30;;;;;;;;;;5052591;28;20185;-53
2023/08/08 01:07:44;;;;;;;181.90;54.05;;;;;;;;;;5052566;28;20443;-52
2023/08/08 01:10:13;;;;;;;181.20;53.00;;;;;;;;;;5052195;28;20598;-50
2023/08/08 01:12:41;;;;;;;183.35;53.58;;;;;;;;;;5053178;28;20657;-50
2023/08/08 01:15:08;;;;;;;182.30;53.05;;;;;;;;;;5052831;28;20211;-49
2023/08/08 01:17:35;;;;;;;181.65;53.75;;;;;;;;;;5053004;28;20167;-51
2023/08/08 01:20:03;;;;;;;182.70;53.33;;;;;;;;;;5052751;28;20640;-49
2023/08/08 01:22:33;;;;;;;180.65;52.25;;;;;;;;;;5052741;28;20709;-50
2023/08/08 01:25:00;;;;;;;182.77;54.53;;;;;;;;;;5052508;28;20551;-53
2023/08/08 01:27:26;;;;;;;182.02;53.05;;;;;;;;;;5052665;28;20179;-55
2023/08/08 01:29:53;;;;;;;186.95;57.05;;;;;;;;;;5052773;28;20244;-54
2023/08/08 01:32:19;;;;;;;180.40;51.83;;;;;;;;;;5047566;28;20180;-54
2023/08/08 01:34:45;;;;;;;181.50;52.78;;;;;;;;;;5052669;28;20174;-55
2023/08/08 01:37:23;;;;;;;181.87;53.20;;;;;;;;;;5052615;28;20171;-51
2023/08/08 01:39:49;;;;;;;184.70;55.95;;;;;;;;;;5045695;28;20405;-54
2023/08/08 01:42:16;;;;;;;182.98;53.72;;;;;;;;;;5045037;28;20220;-53
2023/08/08 01:44:42;;;;;;;181.45;53.03;;;;;;;;;;5051756;28;20181;-55
2023/08/08 01:47:08;;;;;;;181.70;52.95;;;;;;;;;;5052589;28;20202;-54
2023/08/08 01:49:34;;;;;;;181.10;52.17;;;;;;;;;;5052181;28;20651;-54
2023/08/08 01:52:00;;;;;;;181.60;53.47;;;;;;;;;;5052189;28;20240;-54
2023/08/08 01:54:26;;;;;;;183.07;54.10;;;;;;;;;;5052271;28;20409;-54
2023/08/08 01:56:52;;;;;;;182.70;53.07;;;;;;;;;;5046175;28;20428;-54
2023/08/08 01:59:18;;;;;;;181.43;53.30;;;;;;;;;;5049290;28;20448;-53
2023/08/08 02:01:44;;;;;;;181.37;53.00;;;;;;;;;;5051497;28;20462;-54
2023/08/08 02:04:10;;;;;;;182.80;53.60;;;;;;;;;;5049993;28;20408;-53
2023/08/08 02:06:36;;;;;;;180.50;51.97;;;;;;;;;;5046133;28;20451;-54
2023/08/08 02:09:02;;;;;;;181.37;53.47;;;;;;;;;;5044404;28;20406;-54
2023/08/08 02:11:28;;;;;;;179.47;52.30;;;;;;;;;;5050707;28;20433;-54
2023/08/08 02:13:54;;;;;;;181.40;52.97;;;;;;;;;;5051933;28;20415;-54
2023/08/08 02:16:20;;;;;;;179.97;51.67;;;;;;;;;;5047648;28;20449;-54
2023/08/08 02:18:46;;;;;;;181.73;53.10;;;;;;;;;;5051948;28;20401;-54
2023/08/08 02:21:12;;;;;;;180.17;52.87;;;;;;;;;;5051594;28;20960;-53
2023/08/08 02:23:38;;;;;;;181.17;53.63;;;;;;;;;;5051595;28;20921;-52
2023/08/08 02:26:04;;;;;;;179.23;51.07;;;;;;;;;;5051508;28;20409;-54
2023/08/08 02:28:31;;;;;;;182.40;53.08;;;;;;;;;;5051765;28;20822;-54
2023/08/08 02:30:57;;;;;;;182.02;53.05;;;;;;;;;;5051347;28;20258;-54
2023/08/08 02:33:23;;;;;;;181.17;53.87;;;;;;;;;;5051711;28;20178;-53
2023/08/08 02:35:49;;;;;;;180.50;52.33;;;;;;;;;;5051770;28;20413;-52
2023/08/08 02:38:15;;;;;;;179.77;51.77;;;;;;;;;;5050628;28;20420;-53
2023/08/08 02:40:40;;;;;;;179.40;51.87;;;;;;;;;;5051170;28;20494;-54
2023/08/08 02:43:07;;;;;;;181.33;53.13;;;;;;;;;;5051903;28;20551;-54
2023/08/08 02:45:33;;;;;;;181.60;53.28;;;;;;;;;;5051526;28;20417;-54
2023/08/08 02:47:58;;;;;;;180.25;52.15;;;;;;;;;;5051580;28;20178;-53
2023/08/08 02:50:24;;;;;;;179.80;52.47;;;;;;;;;;5051008;28;20200;-52
2023/08/08 02:52:51;;;;;;;181.00;53.10;;;;;;;;;;5051479;28;20405;-53
2023/08/08 02:55:17;;;;;;;180.73;52.58;;;;;;;;;;5050761;28;20402;-52
2023/08/08 02:57:43;;;;;;;179.63;51.37;;;;;;;;;;5049307;28;20181;-51
2023/08/08 03:00:11;;;;;;;181.75;52.97;;;;;;;;;;5051153;28;20408;-53
2023/08/08 03:02:37;;;;;;;182.30;53.25;;;;;;;;;;5051337;28;20430;-54
2023/08/08 03:05:04;;;;;;;180.67;52.90;;;;;;;;;;5051366;28;20176;-54
2023/08/08 03:07:30;;;;;;;180.82;52.97;;;;;;;;;;5050652;28;20475;-54
2023/08/08 03:09:56;;;;;;;184.67;56.90;;;;;;;;;;5051107;28;20167;-52
2023/08/08 03:12:22;;;;;;;180.87;52.33;;;;;;;;;;5051306;28;20418;-52
2023/08/08 03:14:48;;;;;;;180.63;52.60;;;;;;;;;;5051477;28;20500;-54
2023/08/08 03:17:14;;;;;;;179.70;52.07;;;;;;;;;;5051269;28;20415;-52
2023/08/08 03:19:39;;;;;;;180.77;52.93;;;;;;;;;;5055154;28;20431;-54
2023/08/08 03:22:05;;;;;;;180.27;53.07;;;;;;;;;;5054525;28;20457;-53
2023/08/08 03:24:31;;;;;;;181.07;52.80;;;;;;;;;;5054964;28;20466;-54
2023/08/08 03:26:57;;;;;;;180.37;52.17;;;;;;;;;;5055265;28;20910;-52
2023/08/08 03:29:23;;;;;;;180.57;53.00;;;;;;;;;;5055110;28;20929;-53
2023/08/08 03:31:49;;;;;;;181.43;53.57;;;;;;;;;;5054758;28;20784;-54
2023/08/08 03:34:15;;;;;;;180.43;52.30;;;;;;;;;;5047743;28;20467;-54
2023/08/08 03:36:42;;;;;;;181.83;53.90;;;;;;;;;;5054391;28;20439;-54
2023/08/08 03:39:08;;;;;;;180.43;52.28;;;;;;;;;;5054923;28;20791;-53
2023/08/08 03:41:34;;;;;;;179.27;51.97;;;;;;;;;;5054497;28;20209;-55
2023/08/08 03:44:02;;;;;;;180.30;52.30;;;;;;;;;;5054862;28;20702;-55
2023/08/08 03:46:30;;;;;;;182.68;53.78;;;;;;;;;;5054772;28;20159;-54
2023/08/08 03:48:56;;;;;;;179.63;51.80;;;;;;;;;;5054776;28;20250;-53
2023/08/08 03:51:22;;;;;;;180.67;52.20;;;;;;;;;;5053755;28;20288;-52
2023/08/08 03:53:48;;;;;;;189.27;57.87;;;;;;;;;;5048121;28;20439;-53
2023/08/08 03:56:14;;;;;;;182.07;53.40;;;;;;;;;;5050924;28;20488;-50
2023/08/08 03:58:39;;;;;;;181.73;51.97;;;;;;;;;;5054682;28;20776;-53
2023/08/08 04:01:07;;;;;;;184.47;53.10;;;;;;;;;;5054107;28;20526;-54
2023/08/08 04:03:33;;;;;;;183.93;54.65;;;;;;;;;;5054273;28;21309;-53
2023/08/08 04:05:59;;;;;;;181.67;53.10;;;;;;;;;;5054546;28;20317;-54
2023/08/08 04:08:25;;;;;;;181.77;53.10;;;;;;;;;;5054371;28;20413;-53
2023/08/08 04:10:51;;;;;;;179.90;52.30;;;;;;;;;;5054038;28;20421;-51
2023/08/08 04:13:17;;;;;;;180.25;52.53;;;;;;;;;;5054294;28;20929;-53
2023/08/08 04:15:43;;;;;;;178.97;51.70;;;;;;;;;;5054260;28;20182;-54
2023/08/08 04:18:10;;;;;;;178.88;51.80;;;;;;;;;;5053551;28;20437;-53
2023/08/08 04:20:36;;;;;;;179.82;52.50;;;;;;;;;;5053599;28;20199;-53
2023/08/08 04:23:02;;;;;;;178.77;51.73;;;;;;;;;;5054079;28;20265;-51
2023/08/08 04:25:28;;;;;;;180.45;52.67;;;;;;;;;;5054017;28;20405;-54
2023/08/08 04:27:54;;;;;;;178.57;51.58;;;;;;;;;;5053911;28;20182;-54
2023/08/08 04:30:21;;;;;;;180.55;52.83;;;;;;;;;;5052757;28;20190;-53
2023/08/08 04:32:47;;;;;;;178.52;52.35;;;;;;;;;;5053836;28;20167;-51
2023/08/08 04:35:14;;;;;;;178.80;51.87;;;;;;;;;;5053673;28;20251;-50
2023/08/08 04:37:41;;;;;;;179.48;52.35;;;;;;;;;;5054028;28;20423;-53
2023/08/08 04:40:08;;;;;;;180.00;52.40;;;;;;;;;;5053533;28;20213;-52
2023/08/08 04:42:35;;;;;;;178.18;51.92;;;;;;;;;;5053615;28;20210;-54
2023/08/08 04:45:02;;;;;;;179.07;52.25;;;;;;;;;;5053753;28;20193;-54
2023/08/08 04:47:28;;;;;;;180.20;52.75;;;;;;;;;;5053428;28;20171;-52
2023/08/08 04:49:54;;;;;;;182.10;54.63;;;;;;;;;;5052096;28;20182;-54
2023/08/08 04:52:20;;;;;;;180.17;52.57;;;;;;;;;;5051053;28;20170;-54
2023/08/08 04:54:47;;;;;;;176.73;50.77;;;;;;;;;;5053536;28;20405;-54
2023/08/08 04:57:13;;;;;;;179.73;53.15;;;;;;;;;;5053443;28;20417;-51
2023/08/08 04:59:39;;;;;;;177.07;51.63;;;;;;;;;;5052987;28;20178;-49
2023/08/08 05:02:05;;;;;;;180.33;53.40;;;;;;;;;;5051420;28;20504;-54
2023/08/08 05:04:31;;;;;;;180.15;52.78;;;;;;;;;;5053223;28;20444;-54
2023/08/08 05:06:57;;;;;;;180.70;53.50;;;;;;;;;;5050490;28;20187;-54
2023/08/08 05:09:26;;;;;;;181.18;52.58;;;;;;;;;;5051368;28;20176;-54
2023/08/08 05:11:52;;;;;;;179.15;52.13;;;;;;;;;;5046646;28;20182;-55
2023/08/08 05:14:18;;;;;;;177.75;51.63;;;;;;;;;;5052949;28;20181;-54
2023/08/08 05:16:46;;;;;;;179.27;52.35;;;;;;;;;;5052952;28;20421;-54
2023/08/08 05:19:12;;;;;;;179.55;52.60;;;;;;;;;;5053034;28;20222;-54
2023/08/08 05:21:38;;;;;;;180.88;53.08;;;;;;;;;;5052898;28;20206;-54
2023/08/08 05:24:04;;;;;;;178.07;51.30;;;;;;;;;;5053086;28;20591;-53
2023/08/08 05:26:30;;;;;;;179.15;52.33;;;;;;;;;;5052867;28;20389;-52
2023/08/08 05:28:56;;;;;;;178.60;51.70;;;;;;;;;;5052910;28;20250;-51
2023/08/08 05:31:22;;;;;;;179.53;52.00;;;;;;;;;;5050584;28;20285;-52
2023/08/08 05:33:51;;;;;;;179.63;52.47;;;;;;;;;;5049512;28;20408;-51
2023/08/08 05:36:17;;;;;;;179.45;52.22;;;;;;;;;;5052718;28;20410;-53
2023/08/08 05:38:43;;;;;;;287.93;77.47;;;;;;;;;;5052715;28;20185;-53
2023/08/08 05:41:09;;;;;;;178.00;51.63;;;;;;;;;;5051462;28;20621;-52
2023/08/08 05:43:35;;;;;;;181.23;52.83;;;;;;;;;;5051140;28;20406;-51
2023/08/08 05:46:01;;;;;;;181.43;53.20;;;;;;;;;;5052486;28;20412;-52
2023/08/08 05:48:27;;;;;;;182.03;54.00;;;;;;;;;;5052473;28;20163;-53
2023/08/08 05:50:53;;;;;;;178.70;51.80;;;;;;;;;;5047331;28;20503;-54
2023/08/08 05:53:19;;;;;;;181.00;53.00;;;;;;;;;;5052305;28;20898;-52
2023/08/08 05:55:46;;;;;;;180.13;52.70;;;;;;;;;;5052323;28;20413;-53
2023/08/08 05:58:12;;;;;;;180.65;52.63;;;;;;;;;;5052236;28;20809;-52
2023/08/08 06:00:38;;;;;;;180.93;53.33;;;;;;;;;;5051832;28;20218;-52
2023/08/08 06:03:04;;;;;;;183.35;54.85;;;;;;;;;;5051883;28;20400;-53
2023/08/08 06:05:30;;;;;;;180.80;53.05;;;;;;;;;;5051711;28;20523;-53
2023/08/08 06:07:56;;;;;;;180.83;53.30;;;;;;;;;;5051782;28;20182;-53
2023/08/08 06:10:25;;;;;;;201.53;58.70;;;;;;;;;;5050864;28;20418;-54
2023/08/08 06:12:51;;;;;;;181.80;54.03;;;;;;;;;;5051286;28;20837;-53
2023/08/08 06:15:17;;;;;;;180.27;52.37;;;;;;;;;;5051367;28;20174;-53
2023/08/08 06:17:42;;;;;;;179.93;52.63;;;;;;;;;;5051559;28;20407;-54
2023/08/08 06:20:09;;;;;;;181.60;53.20;;;;;;;;;;5051658;28;20193;-54
2023/08/08 06:22:35;;;;;;;182.10;54.10;;;;;;;;;;5051810;28;20517;-53
2023/08/08 06:25:01;;;;;;;180.38;52.50;;;;;;;;;;5051856;28;20171;-54
2023/08/08 06:27:27;;;;;;;182.10;53.93;;;;;;;;;;5051703;28;20178;-53
2023/08/08 06:29:53;;;;;;;184.23;56.05;;;;;;;;;;5051598;28;20436;-53
2023/08/08 06:32:19;;;;;;;179.90;52.83;;;;;;;;;;5046417;28;20175;-54
2023/08/08 06:34:45;;;;;;;179.63;52.97;;;;;;;;;;5051884;28;20439;-52
2023/08/08 06:37:11;;;;;;;181.02;53.40;;;;;;;;;;5051694;28;20397;-50
2023/08/08 06:39:39;;;;;;;179.30;52.05;;;;;;;;;;5051447;28;20285;-53
2023/08/08 06:42:05;;;;;;;180.82;53.28;;;;;;;;;;5051422;28;20252;-53
2023/08/08 06:44:32;;;;;;;181.55;54.42;;;;;;;;;;5051446;28;20612;-53
2023/08/08 06:46:58;;;;;;;181.38;53.15;;;;;;;;;;5051690;28;20210;-51
2023/08/08 06:49:24;;;;;;;182.30;54.20;;;;;;;;;;5051385;28;20216;-53
2023/08/08 06:51:50;;;;;;;180.53;53.07;;;;;;;;;;5048661;28;20460;-53
2023/08/08 06:54:16;;;;;;;179.80;52.23;;;;;;;;;;5049509;28;20455;-52
2023/08/08 06:56:42;;;;;;;181.83;53.57;;;;;;;;;;5051451;28;20413;-53
2023/08/08 06:59:08;;;;;;;180.47;52.57;;;;;;;;;;5051600;28;20409;-53
2023/08/08 07:01:34;;;;;;;181.37;53.10;;;;;;;;;;5051407;28;20988;-52
2023/08/08 07:04:01;;;;;;;179.87;51.80;;;;;;;;;;5051509;28;20825;-52
2023/08/08 07:06:27;;;;;;;184.90;55.63;;;;;;;;;;5050771;28;20416;-53
2023/08/08 07:08:54;;;;;;;181.93;53.42;;;;;;;;;;5043050;28;20168;-54
2023/08/08 07:11:21;;;;;;;181.73;53.40;;;;;;;;;;5050585;28;20199;-52
2023/08/08 07:13:47;;;;;;;182.77;54.50;;;;;;;;;;5048805;28;20182;-53
2023/08/08 07:16:13;;;;;;;181.33;52.10;;;;;;;;;;5047321;28;20183;-51
2023/08/08 07:18:39;;;;;;;180.20;52.80;;;;;;;;;;5051486;28;20461;-53
2023/08/08 07:21:06;;;;;;;180.90;52.87;;;;;;;;;;5050966;28;20464;-52
2023/08/08 07:23:31;;;;;;;182.98;53.90;;;;;;;;;;5051275;28;20891;-52
2023/08/08 07:25:57;;;;;;;181.57;52.77;;;;;;;;;;5051095;28;20198;-54
2023/08/08 07:28:25;;;;;;;181.20;53.00;;;;;;;;;;5051105;28;20409;-54
2023/08/08 07:30:50;;;;;;;181.07;52.85;;;;;;;;;;5050813;28;20451;-54
2023/08/08 07:33:16;;;;;;;180.67;53.27;;;;;;;;;;5051367;28;20171;-52
2023/08/08 07:35:42;;;;;;;181.52;53.40;;;;;;;;;;5051023;28;20444;-52
2023/08/08 07:38:08;;;;;;;181.50;52.83;;;;;;;;;;5051195;28;20203;-53
2023/08/08 07:40:36;;;;;;;181.83;53.60;;;;;;;;;;5051089;28;20413;-54
2023/08/08 07:43:02;;;;;;;183.10;54.20;;;;;;;;;;5049595;28;20914;-53
2023/08/08 07:45:28;;;;;;;183.43;54.85;;;;;;;;;;5050899;28;20651;-54
2023/08/08 07:47:54;;;;;;;182.50;53.73;;;;;;;;;;5051080;28;20181;-52
2023/08/08 07:50:20;;;;;;;182.40;53.80;;;;;;;;;;5050515;28;20492;-52
2023/08/08 07:52:46;;;;;;;182.73;53.37;;;;;;;;;;5051022;28;20616;-54
2023/08/08 07:55:11;;;;;;;184.13;54.47;;;;;;;;;;5050992;28;20805;-54
2023/08/08 07:57:38;;;;;;;184.80;55.43;;;;;;;;;;5050831;28;20450;-54
2023/08/08 08:00:11;;;;;;;184.93;54.63;;;;;;;;;;5050667;28;20441;-54
2023/08/08 08:02:37;;;;;;;183.90;52.70;;;;;;;;;;5050703;28;20209;-54
2023/08/08 08:05:05;;;;;;;185.60;53.65;;;;;;;;;;5053672;28;20558;-54
2023/08/08 08:07:32;;;;;;;188.90;55.30;;;;;;;;;;5054804;28;20178;-54
2023/08/08 08:09:59;;;;;;;190.18;56.90;;;;;;;;;;5054292;28;20171;-53
2023/08/08 08:12:26;;;;;;;188.82;54.50;;;;;;;;;;5054335;28;20633;-54
2023/08/08 08:14:52;;;;;;;186.93;55.00;;;;;;;;;;5050973;28;20186;-54
2023/08/08 08:17:18;;;;;;;187.50;56.30;;;;;;;;;;5052918;28;20402;-54
2023/08/08 08:19:44;;;;;;;190.27;58.00;;;;;;;;;;5050913;28;20404;-51
2023/08/08 08:22:10;;;;;;;188.80;56.80;;;;;;;;;;5054073;28;20464;-54
2023/08/08 08:24:36;;;;;;;188.40;55.30;;;;;;;;;;5053156;28;20950;-49
2023/08/08 08:27:02;;;;;;;189.67;56.40;;;;;;;;;;5054227;28;20480;-49
2023/08/08 08:29:28;;;;;;;188.40;55.70;;;;;;;;;;5054068;28;20402;-50
2023/08/08 08:31:54;;;;;;;188.30;56.60;;;;;;;;;;5053968;28;20467;-51
2023/08/08 08:34:20;;;;;;;189.47;57.63;;;;;;;;;;5053931;28;20412;-51
2023/08/08 08:36:46;;;;;;;188.87;57.00;;;;;;;;;;5046028;28;20470;-51
2023/08/08 08:39:12;;;;;;;189.77;58.17;;;;;;;;;;5047356;28;20988;-50
2023/08/08 08:41:38;;;;;;;187.87;56.57;;;;;;;;;;5052297;28;21001;-49
2023/08/08 08:44:05;;;;;;;186.73;55.87;;;;;;;;;;5052924;28;20414;-49
2023/08/08 08:46:34;;;;;;;188.87;57.67;;;;;;;;;;5051619;28;20471;-49
2023/08/08 08:49:00;;;;;;;191.27;58.37;;;;;;;;;;5052521;28;20404;-51
2023/08/08 08:51:26;;;;;;;190.90;59.60;;;;;;;;;;5053234;28;20451;-49
2023/08/08 08:53:52;;;;;;;188.77;56.80;;;;;;;;;;5053534;28;20463;-50
2023/08/08 08:56:20;;;;;;;186.67;55.67;;;;;;;;;;5053436;28;20412;-49
2023/08/08 08:58:46;;;;;;;211.07;61.37;;;;;;;;;;5053515;28;20419;-52
2023/08/08 09:01:13;;;;;;;188.63;57.97;;;;;;;;;;5051586;28;20813;-49
2023/08/08 09:03:39;;;;;;;190.17;57.70;;;;;;;;;;5053247;28;20413;-50
2023/08/08 09:06:05;;;;;;;189.23;58.70;;;;;;;;;;5053607;28;20819;-49
2023/08/08 09:08:31;;;;;;;192.67;63.27;;;;;;;;;;5053332;28;20457;-50
2023/08/08 09:10:57;;;;;;;192.07;62.67;;;;;;;;;;5053047;28;20422;-50
2023/08/08 09:13:26;;;;;;;185.77;55.80;;;;;;;;;;5053201;28;20825;-51
2023/08/08 09:15:53;;;;;;;192.07;61.10;;;;;;;;;;5051547;28;20792;-49
2023/08/08 09:18:19;;;;;;;188.63;58.13;;;;;;;;;;5052971;28;20409;-49
2023/08/08 09:20:49;;;;;;;190.03;59.37;;;;;;;;;;5052984;28;20444;-49
2023/08/08 09:23:15;;;;;;;189.77;59.60;;;;;;;;;;5053143;28;20444;-50
2023/08/08 09:25:42;;;;;;;188.70;58.97;;;;;;;;;;5049297;28;20419;-51
2023/08/08 09:28:08;;;;;;;190.13;59.37;;;;;;;;;;5048007;28;20416;-51
2023/08/08 09:30:35;;;;;;;187.70;57.50;;;;;;;;;;5051926;28;20429;-53
2023/08/08 09:33:02;;;;;;;189.07;57.83;;;;;;;;;;5049580;28;20423;-51
2023/08/08 09:35:30;;;;;;;189.37;59.43;;;;;;;;;;5052690;28;20437;-50
2023/08/08 09:37:57;;;;;;;191.40;59.87;;;;;;;;;;5053099;28;20819;-49
2023/08/08 09:40:23;;;;;;;190.57;59.50;;;;;;;;;;5052338;28;20930;-49
2023/08/08 09:42:51;;;;;;;189.40;60.03;;;;;;;;;;5051293;28;20501;-49
2023/08/08 09:45:18;;;;;;;190.43;61.07;;;;;;;;;;5052467;28;20432;-50
2023/08/08 09:47:44;;;;;;;188.87;58.47;;;;;;;;;;5052561;28;20470;-51
2023/08/08 09:50:10;;;;;;;190.50;61.40;;;;;;;;;;5051126;28;20422;-52
2023/08/08 09:52:39;;;;;;;190.73;60.57;;;;;;;;;;5052586;28;20428;-50
2023/08/08 09:55:06;;;;;;;191.87;62.10;;;;;;;;;;5052431;28;20435;-50
2023/08/08 09:57:33;;;;;;;190.57;58.93;;;;;;;;;;5052422;28;20901;-50
2023/08/08 10:00:02;;;;;;;191.23;59.90;;;;;;;;;;5051964;28;20489;-50
2023/08/08 10:02:29;;;;;;;191.97;62.77;;;;;;;;;;5052212;28;20831;-49
2023/08/08 10:04:57;;;;;;;187.73;57.13;;;;;;;;;;5052253;28;20420;-49
2023/08/08 10:07:23;;;;;;;191.67;60.60;;;;;;;;;;5052285;28;20406;-49
2023/08/08 10:09:49;;;;;;;194.13;63.33;;;;;;;;;;5051981;28;20413;-49
2023/08/08 10:12:16;;;;;;;192.43;63.43;;;;;;;;;;5052132;28;20518;-49
2023/08/08 10:14:43;;;;;;;188.37;58.40;;;;;;;;;;5051860;28;20417;-49
2023/08/08 10:17:09;;;;;;;189.93;60.77;;;;;;;;;;5052205;28;20452;-51
2023/08/08 10:19:36;;;;;;;189.37;60.17;;;;;;;;;;5051987;28;20470;-56
2023/08/08 10:22:05;;;;;;;187.10;59.10;;;;;;;;;;5050487;28;20468;-50
2023/08/08 10:24:38;;;;;;;191.77;62.50;;;;;;;;;;5050765;28;20945;-52
2023/08/08 10:27:04;;;;;;;193.00;61.50;;;;;;;;;;5051320;28;20760;-51
2023/08/08 10:29:31;;;;;;;194.27;65.40;;;;;;;;;;5052014;28;20412;-51
2023/08/08 10:32:00;;;;;;;190.43;59.60;;;;;;;;;;5051519;28;20834;-50
2023/08/08 10:34:42;;;;;;;191.27;60.00;;;;;;;;;;5035572;28;20409;-51
2023/08/08 10:37:20;;;;;;;192.17;63.70;;;;;;;;;;5047171;28;20413;-49
2023/08/08 10:39:57;;;;;;;193.03;62.80;;;;;;;;;;5051502;28;20426;-49
2023/08/08 10:42:25;;;;;;;191.03;60.07;;;;;;;;;;5051863;28;20468;-49
2023/08/08 10:44:55;;;;;;;190.97;60.97;;;;;;;;;;5051683;28;20424;-50
2023/08/08 10:47:27;;;;;;;195.53;66.20;;;;;;;;;;5051690;28;20463;-49
2023/08/08 10:49:59;;;;;;;195.53;64.50;;;;;;;;;;5051128;28;20494;-50
2023/08/08 10:52:25;;;;;;;192.63;60.80;;;;;;;;;;5051669;28;20425;-49
2023/08/08 10:54:54;;;;;;;193.73;63.77;;;;;;;;;;5051554;28;20777;-48
2023/08/08 10:57:21;;;;;;;191.47;61.57;;;;;;;;;;5051552;28;20401;-51
2023/08/08 10:59:47;;;;;;;197.07;65.43;;;;;;;;;;5051262;28;20409;-50
2023/08/08 11:02:14;;;;;;;192.17;60.87;;;;;;;;;;5051325;28;20465;-51
2023/08/08 11:04:41;;;;;;;190.00;60.37;;;;;;;;;;5051227;28;20538;-50
2023/08/08 11:07:07;;;;;;;189.77;59.87;;;;;;;;;;5051517;28;20417;-49
2023/08/08 11:09:33;;;;;;;189.13;57.77;;;;;;;;;;5051491;28;20462;-49
2023/08/08 11:11:59;;;;;;;191.07;58.90;;;;;;;;;;5051111;28;20507;-50
2023/08/08 11:14:25;;;;;;;192.13;61.87;;;;;;;;;;5051338;28;20416;-50
2023/08/08 11:16:53;;;;;;;190.80;59.00;;;;;;;;;;5051409;28;20416;-49
2023/08/08 11:19:19;;;;;;;190.20;59.90;;;;;;;;;;5048939;28;20901;-49
2023/08/08 11:21:46;;;;;;;187.20;57.10;;;;;;;;;;5050746;28;21060;-50
2023/08/08 11:24:13;;;;;;;187.53;57.03;;;;;;;;;;5048487;28;20427;-49
2023/08/08 11:26:40;;;;;;;187.40;56.97;;;;;;;;;;5051769;28;20408;-51
2023/08/08 11:29:07;;;;;;;190.10;59.90;;;;;;;;;;5050012;28;20473;-50
2023/08/08 11:31:35;;;;;;;189.63;58.37;;;;;;;;;;5048716;28;20433;-49
2023/08/08 11:34:01;;;;;;;191.53;62.03;;;;;;;;;;5046048;28;21003;-49
2023/08/08 11:36:32;;;;;;;189.73;59.73;;;;;;;;;;5050447;28;20419;-49
2023/08/08 11:39:00;;;;;;;189.87;59.53;;;;;;;;;;5052396;28;20413;-50
2023/08/08 11:41:27;;;;;;;189.93;59.80;;;;;;;;;;5050361;28;20516;-53
2023/08/08 11:43:53;;;;;;;189.33;58.93;;;;;;;;;;5054842;28;20416;-49
2023/08/08 11:46:24;;;;;;;192.17;61.80;;;;;;;;;;5053650;28;20860;-49
2023/08/08 11:48:50;;;;;;;190.87;61.17;;;;;;;;;;5054920;28;20412;-49
2023/08/08 11:51:17;;;;;;;186.70;55.50;;;;;;;;;;5054400;28;20462;-49
2023/08/08 11:53:52;;;;;;;191.47;59.20;;;;;;;;;;5054548;28;20657;-52
2023/08/08 11:56:21;;;;;;;186.97;56.87;;;;;;;;;;5047856;28;20412;-49
2023/08/08 11:58:53;;;;;;;187.70;57.57;;;;;;;;;;5051075;28;20412;-49
2023/08/08 12:01:27;;;;;;;188.70;58.20;;;;;;;;;;5050909;28;20467;-49
2023/08/08 12:03:54;;;;;;;189.50;59.00;;;;;;;;;;5054496;28;20417;-49
2023/08/08 12:06:21;;;;;;;195.60;63.70;;;;;;;;;;5054584;28;20834;-49
2023/08/08 12:08:48;;;;;;;188.77;59.30;;;;;;;;;;5053798;28;20459;-51
2023/08/08 12:11:16;;;;;;;194.63;63.00;;;;;;;;;;5048582;28;20479;-51
2023/08/08 12:13:42;;;;;;;191.40;60.40;;;;;;;;;;5049410;28;20414;-49
2023/08/08 12:16:09;;;;;;;193.00;64.27;;;;;;;;;;5050162;28;20750;-49
2023/08/08 12:18:35;;;;;;;193.27;61.77;;;;;;;;;;5053952;28;20405;-49
2023/08/08 12:21:02;;;;;;;191.70;62.10;;;;;;;;;;5053925;28;20464;-52
2023/08/08 12:23:27;;;;;;;190.43;60.10;;;;;;;;;;5054118;28;20405;-49
2023/08/08 12:25:54;;;;;;;192.90;62.97;;;;;;;;;;5054064;28;20923;-49
2023/08/08 12:28:20;;;;;;;190.27;60.00;;;;;;;;;;5054099;28;20408;-54
2023/08/08 12:30:47;;;;;;;195.67;64.60;;;;;;;;;;5052957;28;20421;-49
2023/08/08 12:33:13;;;;;;;191.33;60.77;;;;;;;;;;5051592;28;20826;-50
2023/08/08 12:35:39;;;;;;;192.37;62.77;;;;;;;;;;5046230;28;20449;-52
2023/08/08 12:38:05;;;;;;;191.83;61.83;;;;;;;;;;5049853;28;20476;-54
2023/08/08 12:40:31;;;;;;;195.43;64.43;;;;;;;;;;5053176;28;20513;-49
2023/08/08 12:42:57;;;;;;;192.40;62.07;;;;;;;;;;5053660;28;20897;-50
2023/08/08 12:45:23;;;;;;;195.73;64.37;;;;;;;;;;5052988;28;20420;-49
2023/08/08 12:47:49;;;;;;;195.33;67.20;;;;;;;;;;5051403;28;20830;-50
2023/08/08 12:50:17;;;;;;;195.63;66.67;;;;;;;;;;5052758;28;20440;-50
2023/08/08 12:52:43;;;;;;;192.90;63.97;;;;;;;;;;5053049;28;20492;-51
2023/08/08 12:55:11;;;;;;;194.00;66.27;;;;;;;;;;5053525;28;20439;-52
2023/08/08 12:57:37;;;;;;;191.77;63.20;;;;;;;;;;5053471;28;20425;-51
2023/08/08 13:00:04;;;;;;;195.40;64.43;;;;;;;;;;5052681;28;20445;-51
2023/08/08 13:02:29;;;;;;;195.10;65.87;;;;;;;;;;5053163;28;20469;-52
2023/08/08 13:04:55;;;;;;;190.80;62.07;;;;;;;;;;5052400;28;20401;-52
2023/08/08 13:07:23;;;;;;;190.67;62.47;;;;;;;;;;5053283;28;20408;-49
2023/08/08 13:09:49;;;;;;;196.07;69.63;;;;;;;;;;5053059;28;20423;-50
2023/08/08 13:12:15;;;;;;;194.77;65.67;;;;;;;;;;5052568;28;20932;-51
2023/08/08 13:14:41;;;;;;;192.00;62.73;;;;;;;;;;5053349;28;20788;-49
2023/08/08 13:17:07;;;;;;;192.60;63.87;;;;;;;;;;5053262;28;20778;-52
2023/08/08 13:19:33;;;;;;;194.00;65.07;;;;;;;;;;5052117;28;20421;-53
2023/08/08 13:21:59;;;;;;;192.20;62.53;;;;;;;;;;5044823;28;20468;-49
2023/08/08 13:24:25;;;;;;;195.77;71.60;;;;;;;;;;5040493;28;20690;-49
2023/08/08 13:26:52;;;;;;;192.13;63.97;;;;;;;;;;5051282;28;20985;-50
2023/08/08 13:29:18;;;;;;;193.27;64.83;;;;;;;;;;5052873;28;20967;-49
2023/08/08 13:31:44;;;;;;;192.77;66.50;;;;;;;;;;5047713;28;20449;-52
2023/08/08 13:34:10;;;;;;;191.00;61.73;;;;;;;;;;5051581;28;20424;-52
2023/08/08 13:36:36;;;;;;;191.63;61.80;;;;;;;;;;5047078;28;20413;-51
2023/08/08 13:39:03;;;;;;;191.47;64.43;;;;;;;;;;5052750;28;20971;-49
2023/08/08 13:41:29;;;;;;;193.67;64.20;;;;;;;;;;5051804;28;20465;-49
2023/08/08 13:43:56;;;;;;;191.80;62.67;;;;;;;;;;5047992;28;20413;-51
2023/08/08 13:46:22;;;;;;;195.83;65.93;;;;;;;;;;5046981;28;20544;-50
2023/08/08 13:48:48;;;;;;;192.20;62.80;;;;;;;;;;5051380;28;20872;-50
2023/08/08 13:51:14;;;;;;;193.07;64.73;;;;;;;;;;5051116;28;20495;-53
2023/08/08 13:53:41;;;;;;;192.47;64.07;;;;;;;;;;5052464;28;20427;-53
2023/08/08 13:56:10;;;;;;;189.50;61.67;;;;;;;;;;5052048;28;20413;-50
2023/08/08 13:58:36;;;;;;;191.77;62.70;;;;;;;;;;5052358;28;20466;-53
2023/08/08 14:01:03;;;;;;;190.03;63.47;;;;;;;;;;5048300;28;20853;-49